sensor_id;sensor_type;location;lat;lon;timestamp;pressure;altitude;pressure_sealevel;temperature
11792;BMP180;5953;52.372;9.918;2022-11-04T00:01:02;99327.00;;;16.50
11792;BMP180;5953;52.372;9.918;2022-11-04T00:03:30;99313.00;;;16.50
11792;BMP180;5953;52.372;9.918;2022-11-04T00:05:59;99325.00;;;16.50
11792;BMP180;5953;52.372;9.918;2022-11-04T00:08:27;99311.00;;;16.40
11792;BMP180;5953;52.372;9.918;2022-11-04T00:10:57;99309.00;;;16.30
11792;BMP180;5953;52.372;9.918;2022-11-04T00:13:42;99318.00;;;16.40
11792;BMP180;5953;52.372;9.918;2022-11-04T00:16:11;99308.00;;;16.30
11792;BMP180;5953;52.372;9.918;2022-11-04T00:18:55;99308.00;;;16.20
11792;BMP180;5953;52.372;9.918;2022-11-04T00:21:23;99306.00;;;16.10
11792;BMP180;5953;52.372;9.918;2022-11-04T00:24:12;99300.00;;;16.20
11792;BMP180;5953;52.372;9.918;2022-11-04T00:26:59;99309.00;;;16.00
11792;BMP180;5953;52.372;9.918;2022-11-04T00:29:44;99306.00;;;16.10
11792;BMP180;5953;52.372;9.918;2022-11-04T00:32:12;99309.00;;;16.20
11792;BMP180;5953;52.372;9.918;2022-11-04T00:34:57;99306.00;;;15.80
11792;BMP180;5953;52.372;9.918;2022-11-04T00:37:25;99297.00;;;16.00
11792;BMP180;5953;52.372;9.918;2022-11-04T00:39:53;99298.00;;;15.80
11792;BMP180;5953;52.372;9.918;2022-11-04T00:42:22;99307.00;;;16.10
11792;BMP180;5953;52.372;9.918;2022-11-04T00:44:50;99298.00;;;16.20
11792;BMP180;5953;52.372;9.918;2022-11-04T00:47:17;99296.00;;;16.20
11792;BMP180;5953;52.372;9.918;2022-11-04T00:49:45;99292.00;;;16.20
11792;BMP180;5953;52.372;9.918;2022-11-04T00:52:13;99289.00;;;16.30
11792;BMP180;5953;52.372;9.918;2022-11-04T00:54:40;99305.00;;;16.30
11792;BMP180;5953;52.372;9.918;2022-11-04T00:57:09;99297.00;;;16.20
11792;BMP180;5953;52.372;9.918;2022-11-04T00:59:38;99294.00;;;16.20
11792;BMP180;5953;52.372;9.918;2022-11-04T01:02:08;99289.00;;;16.40
11792;BMP180;5953;52.372;9.918;2022-11-04T01:04:36;99289.00;;;16.60
11792;BMP180;5953;52.372;9.918;2022-11-04T01:07:03;99289.00;;;16.50
11792;BMP180;5953;52.372;9.918;2022-11-04T01:09:31;99298.00;;;16.40
11792;BMP180;5953;52.372;9.918;2022-11-04T01:11:59;99289.00;;;16.60
11792;BMP180;5953;52.372;9.918;2022-11-04T01:14:27;99309.00;;;16.60
11792;BMP180;5953;52.372;9.918;2022-11-04T01:16:56;99310.00;;;16.60
11792;BMP180;5953;52.372;9.918;2022-11-04T01:19:24;99321.00;;;16.50
11792;BMP180;5953;52.372;9.918;2022-11-04T01:21:52;99315.00;;;16.50
11792;BMP180;5953;52.372;9.918;2022-11-04T01:24:19;99320.00;;;16.50
11792;BMP180;5953;52.372;9.918;2022-11-04T01:26:47;99328.00;;;16.50
11792;BMP180;5953;52.372;9.918;2022-11-04T01:29:15;99337.00;;;16.40
11792;BMP180;5953;52.372;9.918;2022-11-04T01:31:42;99336.00;;;16.30
11792;BMP180;5953;52.372;9.918;2022-11-04T01:34:12;99353.00;;;16.30
11792;BMP180;5953;52.372;9.918;2022-11-04T01:36:39;99338.00;;;16.30
11792;BMP180;5953;52.372;9.918;2022-11-04T01:39:07;99345.00;;;16.20
11792;BMP180;5953;52.372;9.918;2022-11-04T01:41:36;99344.00;;;16.30
11792;BMP180;5953;52.372;9.918;2022-11-04T01:47:14;99349.00;;;16.30
11792;BMP180;5953;52.372;9.918;2022-11-04T01:49:47;99343.00;;;16.40
11792;BMP180;5953;52.372;9.918;2022-11-04T01:52:17;99356.00;;;16.30
11792;BMP180;5953;52.372;9.918;2022-11-04T01:54:49;99348.00;;;16.20
11792;BMP180;5953;52.372;9.918;2022-11-04T01:57:29;99366.00;;;15.40
11792;BMP180;5953;52.372;9.918;2022-11-04T02:00:03;99364.00;;;15.90
11792;BMP180;5953;52.372;9.918;2022-11-04T02:02:31;99376.00;;;15.80
11792;BMP180;5953;52.372;9.918;2022-11-04T02:05:01;99372.00;;;16.00
11792;BMP180;5953;52.372;9.918;2022-11-04T02:07:29;99375.00;;;15.40
11792;BMP180;5953;52.372;9.918;2022-11-04T02:09:57;99363.00;;;15.70
11792;BMP180;5953;52.372;9.918;2022-11-04T02:12:25;99364.00;;;15.70
11792;BMP180;5953;52.372;9.918;2022-11-04T02:15:10;99360.00;;;15.80
11792;BMP180;5953;52.372;9.918;2022-11-04T02:17:52;99347.00;;;16.00
11792;BMP180;5953;52.372;9.918;2022-11-04T02:20:28;99359.00;;;16.10
11792;BMP180;5953;52.372;9.918;2022-11-04T02:23:30;99355.00;;;16.00
11792;BMP180;5953;52.372;9.918;2022-11-04T02:29:22;99346.00;;;16.10
11792;BMP180;5953;52.372;9.918;2022-11-04T02:31:57;99348.00;;;15.90
11792;BMP180;5953;52.372;9.918;2022-11-04T02:34:38;99340.00;;;15.80
11792;BMP180;5953;52.372;9.918;2022-11-04T02:37:13;99343.00;;;15.90
11792;BMP180;5953;52.372;9.918;2022-11-04T02:39:50;99338.00;;;15.90
11792;BMP180;5953;52.372;9.918;2022-11-04T02:42:25;99343.00;;;15.80
11792;BMP180;5953;52.372;9.918;2022-11-04T02:45:07;99347.00;;;15.90
11792;BMP180;5953;52.372;9.918;2022-11-04T02:47:40;99327.00;;;15.80
11792;BMP180;5953;52.372;9.918;2022-11-04T02:50:11;99329.00;;;15.90
11792;BMP180;5953;52.372;9.918;2022-11-04T02:52:43;99337.00;;;15.90
11792;BMP180;5953;52.372;9.918;2022-11-04T02:55:21;99350.00;;;16.00
11792;BMP180;5953;52.372;9.918;2022-11-04T02:57:52;99336.00;;;16.00
11792;BMP180;5953;52.372;9.918;2022-11-04T03:00:24;99342.00;;;16.00
11792;BMP180;5953;52.372;9.918;2022-11-04T03:02:53;99342.00;;;15.90
11792;BMP180;5953;52.372;9.918;2022-11-04T03:05:25;99342.00;;;15.90
11792;BMP180;5953;52.372;9.918;2022-11-04T03:07:56;99333.00;;;15.60
11792;BMP180;5953;52.372;9.918;2022-11-04T03:10:28;99344.00;;;15.80
11792;BMP180;5953;52.372;9.918;2022-11-04T03:13:01;99357.00;;;15.50
11792;BMP180;5953;52.372;9.918;2022-11-04T03:15:34;99359.00;;;15.80
11792;BMP180;5953;52.372;9.918;2022-11-04T03:18:13;99355.00;;;15.70
11792;BMP180;5953;52.372;9.918;2022-11-04T03:20:45;99361.00;;;15.70
11792;BMP180;5953;52.372;9.918;2022-11-04T03:23:14;99374.00;;;15.50
11792;BMP180;5953;52.372;9.918;2022-11-04T03:25:44;99375.00;;;15.40
11792;BMP180;5953;52.372;9.918;2022-11-04T03:28:26;99390.00;;;15.40
11792;BMP180;5953;52.372;9.918;2022-11-04T03:31:01;99397.00;;;15.40
11792;BMP180;5953;52.372;9.918;2022-11-04T03:33:37;99404.00;;;15.30
11792;BMP180;5953;52.372;9.918;2022-11-04T03:36:07;99415.00;;;15.30
11792;BMP180;5953;52.372;9.918;2022-11-04T03:38:36;99429.00;;;15.30
11792;BMP180;5953;52.372;9.918;2022-11-04T03:41:11;99433.00;;;15.30
11792;BMP180;5953;52.372;9.918;2022-11-04T03:43:41;99427.00;;;15.20
11792;BMP180;5953;52.372;9.918;2022-11-04T03:46:10;99433.00;;;15.20
11792;BMP180;5953;52.372;9.918;2022-11-04T03:48:39;99436.00;;;15.10
11792;BMP180;5953;52.372;9.918;2022-11-04T03:51:08;99443.00;;;15.20
11792;BMP180;5953;52.372;9.918;2022-11-04T03:53:36;99444.00;;;15.00
11792;BMP180;5953;52.372;9.918;2022-11-04T03:56:36;99454.00;;;15.00
11792;BMP180;5953;52.372;9.918;2022-11-04T03:59:19;99459.00;;;15.10
11792;BMP180;5953;52.372;9.918;2022-11-04T04:01:53;99462.00;;;15.20
11792;BMP180;5953;52.372;9.918;2022-11-04T04:04:26;99467.00;;;15.10
11792;BMP180;5953;52.372;9.918;2022-11-04T04:06:57;99465.00;;;15.00
11792;BMP180;5953;52.372;9.918;2022-11-04T04:09:34;99463.00;;;14.90
11792;BMP180;5953;52.372;9.918;2022-11-04T04:12:05;99463.00;;;14.50
11792;BMP180;5953;52.372;9.918;2022-11-04T04:14:41;99469.00;;;14.80
11792;BMP180;5953;52.372;9.918;2022-11-04T04:17:16;99473.00;;;14.90
11792;BMP180;5953;52.372;9.918;2022-11-04T04:19:47;99478.00;;;15.00
11792;BMP180;5953;52.372;9.918;2022-11-04T04:22:19;99483.00;;;14.60
11792;BMP180;5953;52.372;9.918;2022-11-04T04:24:51;99473.00;;;14.70
11792;BMP180;5953;52.372;9.918;2022-11-04T04:27:38;99480.00;;;14.80
11792;BMP180;5953;52.372;9.918;2022-11-04T04:30:10;99477.00;;;14.70
11792;BMP180;5953;52.372;9.918;2022-11-04T04:32:43;99479.00;;;14.60
11792;BMP180;5953;52.372;9.918;2022-11-04T04:35:12;99490.00;;;14.60
11792;BMP180;5953;52.372;9.918;2022-11-04T04:38:00;99495.00;;;14.60
11792;BMP180;5953;52.372;9.918;2022-11-04T04:40:46;99493.00;;;14.50
11792;BMP180;5953;52.372;9.918;2022-11-04T04:43:35;99496.00;;;14.60
11792;BMP180;5953;52.372;9.918;2022-11-04T04:46:23;99502.00;;;14.70
11792;BMP180;5953;52.372;9.918;2022-11-04T04:48:52;99505.00;;;14.50
11792;BMP180;5953;52.372;9.918;2022-11-04T04:51:20;99493.00;;;14.60
11792;BMP180;5953;52.372;9.918;2022-11-04T04:53:48;99509.00;;;14.60
11792;BMP180;5953;52.372;9.918;2022-11-04T04:56:16;99507.00;;;14.30
11792;BMP180;5953;52.372;9.918;2022-11-04T04:58:43;99508.00;;;14.30
11792;BMP180;5953;52.372;9.918;2022-11-04T05:01:11;99517.00;;;14.20
11792;BMP180;5953;52.372;9.918;2022-11-04T05:03:39;99514.00;;;14.20
11792;BMP180;5953;52.372;9.918;2022-11-04T05:06:12;99510.00;;;14.30
11792;BMP180;5953;52.372;9.918;2022-11-04T05:08:39;99509.00;;;14.40
11792;BMP180;5953;52.372;9.918;2022-11-04T05:11:07;99512.00;;;14.40
11792;BMP180;5953;52.372;9.918;2022-11-04T05:13:35;99518.00;;;14.40
11792;BMP180;5953;52.372;9.918;2022-11-04T05:16:05;99520.00;;;14.60
11792;BMP180;5953;52.372;9.918;2022-11-04T05:18:33;99516.00;;;14.50
11792;BMP180;5953;52.372;9.918;2022-11-04T05:21:03;99531.00;;;14.50
11792;BMP180;5953;52.372;9.918;2022-11-04T05:23:32;99530.00;;;14.70
11792;BMP180;5953;52.372;9.918;2022-11-04T05:26:01;99553.00;;;14.60
11792;BMP180;5953;52.372;9.918;2022-11-04T05:28:29;99552.00;;;14.80
11792;BMP180;5953;52.372;9.918;2022-11-04T05:31:01;99563.00;;;14.70
11792;BMP180;5953;52.372;9.918;2022-11-04T05:33:29;99564.00;;;14.70
11792;BMP180;5953;52.372;9.918;2022-11-04T05:36:04;99581.00;;;14.80
11792;BMP180;5953;52.372;9.918;2022-11-04T05:38:33;99585.00;;;14.80
11792;BMP180;5953;52.372;9.918;2022-11-04T05:41:01;99586.00;;;14.70
11792;BMP180;5953;52.372;9.918;2022-11-04T05:43:29;99594.00;;;14.70
11792;BMP180;5953;52.372;9.918;2022-11-04T05:45:57;99588.00;;;14.80
11792;BMP180;5953;52.372;9.918;2022-11-04T05:48:25;99555.00;;;14.90
11792;BMP180;5953;52.372;9.918;2022-11-04T05:50:53;99592.00;;;14.70
11792;BMP180;5953;52.372;9.918;2022-11-04T05:53:21;99597.00;;;14.70
11792;BMP180;5953;52.372;9.918;2022-11-04T05:55:51;99600.00;;;14.60
11792;BMP180;5953;52.372;9.918;2022-11-04T05:58:19;99599.00;;;14.50
11792;BMP180;5953;52.372;9.918;2022-11-04T06:00:46;99594.00;;;14.50
11792;BMP180;5953;52.372;9.918;2022-11-04T06:03:14;99591.00;;;14.50
11792;BMP180;5953;52.372;9.918;2022-11-04T06:05:42;99598.00;;;14.50
11792;BMP180;5953;52.372;9.918;2022-11-04T06:08:10;99597.00;;;14.50
11792;BMP180;5953;52.372;9.918;2022-11-04T06:10:38;99600.00;;;14.40
11792;BMP180;5953;52.372;9.918;2022-11-04T06:13:07;99612.00;;;14.20
11792;BMP180;5953;52.372;9.918;2022-11-04T06:15:34;99613.00;;;14.30
11792;BMP180;5953;52.372;9.918;2022-11-04T06:18:02;99615.00;;;14.30
11792;BMP180;5953;52.372;9.918;2022-11-04T06:20:30;99622.00;;;13.80
11792;BMP180;5953;52.372;9.918;2022-11-04T06:22:58;99617.00;;;14.00
11792;BMP180;5953;52.372;9.918;2022-11-04T06:25:25;99630.00;;;13.90
11792;BMP180;5953;52.372;9.918;2022-11-04T06:27:56;99620.00;;;14.00
11792;BMP180;5953;52.372;9.918;2022-11-04T06:30:25;99637.00;;;13.90
11792;BMP180;5953;52.372;9.918;2022-11-04T06:32:53;99639.00;;;14.00
11792;BMP180;5953;52.372;9.918;2022-11-04T06:35:21;99640.00;;;13.80
11792;BMP180;5953;52.372;9.918;2022-11-04T06:37:49;99652.00;;;13.80
11792;BMP180;5953;52.372;9.918;2022-11-04T06:40:17;99659.00;;;13.80
11792;BMP180;5953;52.372;9.918;2022-11-04T06:42:44;99658.00;;;13.80
11792;BMP180;5953;52.372;9.918;2022-11-04T06:45:12;99671.00;;;13.80
11792;BMP180;5953;52.372;9.918;2022-11-04T06:47:41;99679.00;;;13.80
11792;BMP180;5953;52.372;9.918;2022-11-04T06:50:10;99683.00;;;13.70
11792;BMP180;5953;52.372;9.918;2022-11-04T06:52:39;99670.00;;;13.60
11792;BMP180;5953;52.372;9.918;2022-11-04T06:55:08;99666.00;;;13.70
11792;BMP180;5953;52.372;9.918;2022-11-04T06:57:36;99671.00;;;13.90
11792;BMP180;5953;52.372;9.918;2022-11-04T07:00:05;99688.00;;;13.90
11792;BMP180;5953;52.372;9.918;2022-11-04T07:02:33;99687.00;;;14.00
11792;BMP180;5953;52.372;9.918;2022-11-04T07:05:03;99682.00;;;14.00
11792;BMP180;5953;52.372;9.918;2022-11-04T07:07:32;99693.00;;;14.00
11792;BMP180;5953;52.372;9.918;2022-11-04T07:10:00;99679.00;;;14.00
11792;BMP180;5953;52.372;9.918;2022-11-04T07:12:28;99681.00;;;14.10
11792;BMP180;5953;52.372;9.918;2022-11-04T07:14:56;99684.00;;;14.20
11792;BMP180;5953;52.372;9.918;2022-11-04T07:17:24;99680.00;;;13.90
11792;BMP180;5953;52.372;9.918;2022-11-04T07:19:52;99669.00;;;14.00
11792;BMP180;5953;52.372;9.918;2022-11-04T07:22:21;99689.00;;;14.00
11792;BMP180;5953;52.372;9.918;2022-11-04T07:24:49;99685.00;;;14.00
11792;BMP180;5953;52.372;9.918;2022-11-04T07:27:17;99670.00;;;13.90
11792;BMP180;5953;52.372;9.918;2022-11-04T07:29:44;99685.00;;;13.80
11792;BMP180;5953;52.372;9.918;2022-11-04T07:32:12;99676.00;;;13.90
11792;BMP180;5953;52.372;9.918;2022-11-04T07:34:40;99696.00;;;13.90
11792;BMP180;5953;52.372;9.918;2022-11-04T07:37:08;99689.00;;;14.00
11792;BMP180;5953;52.372;9.918;2022-11-04T07:39:37;99691.00;;;14.00
11792;BMP180;5953;52.372;9.918;2022-11-04T07:42:06;99701.00;;;14.10
11792;BMP180;5953;52.372;9.918;2022-11-04T07:44:37;99701.00;;;14.20
11792;BMP180;5953;52.372;9.918;2022-11-04T07:47:05;99702.00;;;14.10
11792;BMP180;5953;52.372;9.918;2022-11-04T07:49:33;99711.00;;;14.10
11792;BMP180;5953;52.372;9.918;2022-11-04T07:52:01;99728.00;;;14.10
11792;BMP180;5953;52.372;9.918;2022-11-04T07:54:29;99727.00;;;14.30
11792;BMP180;5953;52.372;9.918;2022-11-04T07:56:58;99729.00;;;14.20
11792;BMP180;5953;52.372;9.918;2022-11-04T07:59:26;99727.00;;;14.10
11792;BMP180;5953;52.372;9.918;2022-11-04T08:01:53;99727.00;;;14.20
11792;BMP180;5953;52.372;9.918;2022-11-04T08:04:22;99737.00;;;14.30
11792;BMP180;5953;52.372;9.918;2022-11-04T08:06:49;99736.00;;;14.40
11792;BMP180;5953;52.372;9.918;2022-11-04T08:09:17;99731.00;;;14.50
11792;BMP180;5953;52.372;9.918;2022-11-04T08:11:45;99728.00;;;14.20
11792;BMP180;5953;52.372;9.918;2022-11-04T08:14:14;99736.00;;;14.30
11792;BMP180;5953;52.372;9.918;2022-11-04T08:16:42;99746.00;;;14.40
11792;BMP180;5953;52.372;9.918;2022-11-04T08:19:10;99735.00;;;14.40
11792;BMP180;5953;52.372;9.918;2022-11-04T08:21:38;99737.00;;;14.40
11792;BMP180;5953;52.372;9.918;2022-11-04T08:24:06;99759.00;;;14.50
11792;BMP180;5953;52.372;9.918;2022-11-04T08:26:33;99764.00;;;14.50
11792;BMP180;5953;52.372;9.918;2022-11-04T08:29:05;99762.00;;;14.50
11792;BMP180;5953;52.372;9.918;2022-11-04T08:31:34;99765.00;;;14.50
11792;BMP180;5953;52.372;9.918;2022-11-04T08:34:02;99779.00;;;14.60
11792;BMP180;5953;52.372;9.918;2022-11-04T08:36:34;99772.00;;;14.50
11792;BMP180;5953;52.372;9.918;2022-11-04T08:39:02;99774.00;;;14.40
11792;BMP180;5953;52.372;9.918;2022-11-04T08:41:37;99768.00;;;14.30
11792;BMP180;5953;52.372;9.918;2022-11-04T08:44:06;99772.00;;;14.40
11792;BMP180;5953;52.372;9.918;2022-11-04T08:46:37;99761.00;;;14.30
11792;BMP180;5953;52.372;9.918;2022-11-04T08:49:05;99766.00;;;14.30
11792;BMP180;5953;52.372;9.918;2022-11-04T08:51:39;99760.00;;;14.40
11792;BMP180;5953;52.372;9.918;2022-11-04T08:54:07;99756.00;;;14.40
11792;BMP180;5953;52.372;9.918;2022-11-04T08:56:36;99764.00;;;14.30
11792;BMP180;5953;52.372;9.918;2022-11-04T08:59:05;99771.00;;;14.50
11792;BMP180;5953;52.372;9.918;2022-11-04T09:01:36;99785.00;;;14.60
11792;BMP180;5953;52.372;9.918;2022-11-04T09:04:04;99788.00;;;14.70
11792;BMP180;5953;52.372;9.918;2022-11-04T09:06:35;99788.00;;;14.70
11792;BMP180;5953;52.372;9.918;2022-11-04T09:09:04;99787.00;;;14.70
11792;BMP180;5953;52.372;9.918;2022-11-04T09:11:35;99791.00;;;14.70
11792;BMP180;5953;52.372;9.918;2022-11-04T09:14:03;99786.00;;;14.60
11792;BMP180;5953;52.372;9.918;2022-11-04T09:16:33;99797.00;;;14.70
11792;BMP180;5953;52.372;9.918;2022-11-04T09:19:03;99784.00;;;14.70
11792;BMP180;5953;52.372;9.918;2022-11-04T09:21:30;99778.00;;;14.70
11792;BMP180;5953;52.372;9.918;2022-11-04T09:23:58;99783.00;;;14.70
11792;BMP180;5953;52.372;9.918;2022-11-04T09:26:26;99781.00;;;14.80
11792;BMP180;5953;52.372;9.918;2022-11-04T09:28:54;99776.00;;;14.70
11792;BMP180;5953;52.372;9.918;2022-11-04T09:31:25;99776.00;;;14.80
11792;BMP180;5953;52.372;9.918;2022-11-04T09:33:53;99779.00;;;14.90
11792;BMP180;5953;52.372;9.918;2022-11-04T09:36:23;99778.00;;;14.70
11792;BMP180;5953;52.372;9.918;2022-11-04T09:38:51;99775.00;;;14.80
11792;BMP180;5953;52.372;9.918;2022-11-04T09:41:41;99781.00;;;14.80
11792;BMP180;5953;52.372;9.918;2022-11-04T09:44:24;99777.00;;;14.90
11792;BMP180;5953;52.372;9.918;2022-11-04T09:46:57;99779.00;;;14.90
11792;BMP180;5953;52.372;9.918;2022-11-04T09:49:29;99782.00;;;14.80
11792;BMP180;5953;52.372;9.918;2022-11-04T09:52:02;99774.00;;;15.00
11792;BMP180;5953;52.372;9.918;2022-11-04T09:54:38;99777.00;;;14.90
11792;BMP180;5953;52.372;9.918;2022-11-04T09:57:16;99770.00;;;15.00
11792;BMP180;5953;52.372;9.918;2022-11-04T09:59:45;99774.00;;;15.10
11792;BMP180;5953;52.372;9.918;2022-11-04T10:02:27;99773.00;;;15.10
11792;BMP180;5953;52.372;9.918;2022-11-04T10:05:07;99766.00;;;15.10
11792;BMP180;5953;52.372;9.918;2022-11-04T10:07:53;99759.00;;;15.20
11792;BMP180;5953;52.372;9.918;2022-11-04T10:10:27;99761.00;;;15.20
11792;BMP180;5953;52.372;9.918;2022-11-04T10:13:13;99758.00;;;15.30
11792;BMP180;5953;52.372;9.918;2022-11-04T10:16:15;99758.00;;;15.40
11792;BMP180;5953;52.372;9.918;2022-11-04T10:18:57;99753.00;;;15.10
11792;BMP180;5953;52.372;9.918;2022-11-04T10:21:36;99768.00;;;15.20
11792;BMP180;5953;52.372;9.918;2022-11-04T10:24:17;99763.00;;;15.20
11792;BMP180;5953;52.372;9.918;2022-11-04T10:26:46;99762.00;;;15.20
11792;BMP180;5953;52.372;9.918;2022-11-04T10:29:21;99777.00;;;15.00
11792;BMP180;5953;52.372;9.918;2022-11-04T10:31:51;99783.00;;;15.20
11792;BMP180;5953;52.372;9.918;2022-11-04T10:34:30;99811.00;;;15.10
11792;BMP180;5953;52.372;9.918;2022-11-04T10:36:59;99823.00;;;15.00
11792;BMP180;5953;52.372;9.918;2022-11-04T10:39:29;99825.00;;;15.20
11792;BMP180;5953;52.372;9.918;2022-11-04T10:41:58;99826.00;;;15.10
11792;BMP180;5953;52.372;9.918;2022-11-04T10:44:28;99830.00;;;15.00
11792;BMP180;5953;52.372;9.918;2022-11-04T10:47:05;99828.00;;;15.10
11792;BMP180;5953;52.372;9.918;2022-11-04T10:50:11;99825.00;;;15.00
11792;BMP180;5953;52.372;9.918;2022-11-04T10:53:14;99825.00;;;15.20
11792;BMP180;5953;52.372;9.918;2022-11-04T10:55:48;99833.00;;;15.10
11792;BMP180;5953;52.372;9.918;2022-11-04T10:58:20;99827.00;;;15.20
11792;BMP180;5953;52.372;9.918;2022-11-04T11:00:50;99841.00;;;15.20
11792;BMP180;5953;52.372;9.918;2022-11-04T11:03:27;99832.00;;;15.20
11792;BMP180;5953;52.372;9.918;2022-11-04T11:06:10;99830.00;;;15.40
11792;BMP180;5953;52.372;9.918;2022-11-04T11:08:38;99831.00;;;15.50
11792;BMP180;5953;52.372;9.918;2022-11-04T11:11:09;99824.00;;;15.60
11792;BMP180;5953;52.372;9.918;2022-11-04T11:13:40;99820.00;;;15.60
11792;BMP180;5953;52.372;9.918;2022-11-04T11:16:10;99809.00;;;15.80
11792;BMP180;5953;52.372;9.918;2022-11-04T11:18:39;99817.00;;;15.60
11792;BMP180;5953;52.372;9.918;2022-11-04T11:21:11;99819.00;;;15.70
11792;BMP180;5953;52.372;9.918;2022-11-04T11:23:41;99819.00;;;15.90
11792;BMP180;5953;52.372;9.918;2022-11-04T11:26:12;99810.00;;;15.90
11792;BMP180;5953;52.372;9.918;2022-11-04T11:28:45;99822.00;;;15.90
11792;BMP180;5953;52.372;9.918;2022-11-04T11:31:14;99813.00;;;16.00
11792;BMP180;5953;52.372;9.918;2022-11-04T11:33:51;99820.00;;;15.90
11792;BMP180;5953;52.372;9.918;2022-11-04T11:36:23;99813.00;;;15.90
11792;BMP180;5953;52.372;9.918;2022-11-04T11:38:55;99824.00;;;15.70
11792;BMP180;5953;52.372;9.918;2022-11-04T11:41:25;99825.00;;;15.90
11792;BMP180;5953;52.372;9.918;2022-11-04T11:44:00;99834.00;;;16.10
11792;BMP180;5953;52.372;9.918;2022-11-04T11:46:31;99837.00;;;16.00
11792;BMP180;5953;52.372;9.918;2022-11-04T11:49:01;99827.00;;;16.10
11792;BMP180;5953;52.372;9.918;2022-11-04T11:51:31;99834.00;;;16.10
11792;BMP180;5953;52.372;9.918;2022-11-04T11:54:12;99841.00;;;16.20
11792;BMP180;5953;52.372;9.918;2022-11-04T11:56:45;99829.00;;;16.20
11792;BMP180;5953;52.372;9.918;2022-11-04T11:59:41;99833.00;;;16.30
11792;BMP180;5953;52.372;9.918;2022-11-04T12:02:35;99841.00;;;16.50
11792;BMP180;5953;52.372;9.918;2022-11-04T12:05:08;99828.00;;;16.40
11792;BMP180;5953;52.372;9.918;2022-11-04T12:08:04;99832.00;;;16.20
11792;BMP180;5953;52.372;9.918;2022-11-04T12:11:01;99827.00;;;16.40
11792;BMP180;5953;52.372;9.918;2022-11-04T12:13:38;99831.00;;;16.50
11792;BMP180;5953;52.372;9.918;2022-11-04T12:16:18;99835.00;;;16.70
11792;BMP180;5953;52.372;9.918;2022-11-04T12:19:01;99834.00;;;16.70
11792;BMP180;5953;52.372;9.918;2022-11-04T12:21:32;99827.00;;;16.70
11792;BMP180;5953;52.372;9.918;2022-11-04T12:24:10;99823.00;;;16.70
11792;BMP180;5953;52.372;9.918;2022-11-04T12:26:46;99833.00;;;16.80
11792;BMP180;5953;52.372;9.918;2022-11-04T12:29:29;99833.00;;;16.90
11792;BMP180;5953;52.372;9.918;2022-11-04T12:32:06;99826.00;;;16.80
11792;BMP180;5953;52.372;9.918;2022-11-04T12:34:46;99833.00;;;16.80
11792;BMP180;5953;52.372;9.918;2022-11-04T12:37:24;99835.00;;;16.80
11792;BMP180;5953;52.372;9.918;2022-11-04T12:40:07;99841.00;;;16.60
11792;BMP180;5953;52.372;9.918;2022-11-04T12:42:48;99838.00;;;16.70
11792;BMP180;5953;52.372;9.918;2022-11-04T12:45:26;99849.00;;;16.70
11792;BMP180;5953;52.372;9.918;2022-11-04T12:48:02;99838.00;;;16.70
11792;BMP180;5953;52.372;9.918;2022-11-04T12:50:50;99857.00;;;16.70
11792;BMP180;5953;52.372;9.918;2022-11-04T12:56:10;99851.00;;;16.80
11792;BMP180;5953;52.372;9.918;2022-11-04T12:58:53;99861.00;;;17.00
11792;BMP180;5953;52.372;9.918;2022-11-04T13:01:32;99873.00;;;17.10
11792;BMP180;5953;52.372;9.918;2022-11-04T13:04:03;99875.00;;;16.70
11792;BMP180;5953;52.372;9.918;2022-11-04T13:06:37;99884.00;;;16.80
11792;BMP180;5953;52.372;9.918;2022-11-04T13:09:12;99874.00;;;16.60
11792;BMP180;5953;52.372;9.918;2022-11-04T13:11:45;99885.00;;;16.80
11792;BMP180;5953;52.372;9.918;2022-11-04T13:14:19;99887.00;;;17.10
11792;BMP180;5953;52.372;9.918;2022-11-04T13:16:59;99888.00;;;17.10
11792;BMP180;5953;52.372;9.918;2022-11-04T13:19:32;99893.00;;;17.10
11792;BMP180;5953;52.372;9.918;2022-11-04T13:22:04;99907.00;;;17.10
11792;BMP180;5953;52.372;9.918;2022-11-04T13:24:37;99902.00;;;17.10
11792;BMP180;5953;52.372;9.918;2022-11-04T13:27:16;99904.00;;;16.90
11792;BMP180;5953;52.372;9.918;2022-11-04T13:29:46;99897.00;;;17.00
11792;BMP180;5953;52.372;9.918;2022-11-04T13:32:22;99901.00;;;17.00
11792;BMP180;5953;52.372;9.918;2022-11-04T13:34:56;99905.00;;;17.00
11792;BMP180;5953;52.372;9.918;2022-11-04T13:37:28;99908.00;;;17.00
11792;BMP180;5953;52.372;9.918;2022-11-04T13:39:58;99912.00;;;16.80
11792;BMP180;5953;52.372;9.918;2022-11-04T13:43:03;99915.00;;;17.00
11792;BMP180;5953;52.372;9.918;2022-11-04T13:45:54;99920.00;;;16.90
11792;BMP180;5953;52.372;9.918;2022-11-04T13:48:25;99918.00;;;17.00
11792;BMP180;5953;52.372;9.918;2022-11-04T13:50:59;99913.00;;;17.00
11792;BMP180;5953;52.372;9.918;2022-11-04T13:53:40;99916.00;;;16.90
11792;BMP180;5953;52.372;9.918;2022-11-04T13:56:08;99919.00;;;17.00
11792;BMP180;5953;52.372;9.918;2022-11-04T13:59:01;99922.00;;;17.00
11792;BMP180;5953;52.372;9.918;2022-11-04T14:01:31;99926.00;;;17.00
11792;BMP180;5953;52.372;9.918;2022-11-04T14:04:16;99928.00;;;16.90
11792;BMP180;5953;52.372;9.918;2022-11-04T14:06:53;99922.00;;;17.10
11792;BMP180;5953;52.372;9.918;2022-11-04T14:09:32;99912.00;;;17.20
11792;BMP180;5953;52.372;9.918;2022-11-04T14:15:39;99921.00;;;17.30
11792;BMP180;5953;52.372;9.918;2022-11-04T14:18:26;99940.00;;;17.20
11792;BMP180;5953;52.372;9.918;2022-11-04T14:21:04;99941.00;;;17.30
11792;BMP180;5953;52.372;9.918;2022-11-04T14:23:32;99938.00;;;17.20
11792;BMP180;5953;52.372;9.918;2022-11-04T14:26:02;99952.00;;;17.30
11792;BMP180;5953;52.372;9.918;2022-11-04T14:28:31;99954.00;;;17.40
11792;BMP180;5953;52.372;9.918;2022-11-04T14:31:00;99952.00;;;17.30
11792;BMP180;5953;52.372;9.918;2022-11-04T14:33:35;99965.00;;;17.30
11792;BMP180;5953;52.372;9.918;2022-11-04T14:36:34;99954.00;;;17.20
11792;BMP180;5953;52.372;9.918;2022-11-04T14:39:07;99968.00;;;17.10
11792;BMP180;5953;52.372;9.918;2022-11-04T14:41:58;99965.00;;;17.20
11792;BMP180;5953;52.372;9.918;2022-11-04T14:44:30;99968.00;;;17.10
11792;BMP180;5953;52.372;9.918;2022-11-04T14:47:01;99968.00;;;17.10
11792;BMP180;5953;52.372;9.918;2022-11-04T14:49:43;99970.00;;;17.10
11792;BMP180;5953;52.372;9.918;2022-11-04T14:52:16;99977.00;;;17.10
11792;BMP180;5953;52.372;9.918;2022-11-04T14:54:46;99976.00;;;17.10
11792;BMP180;5953;52.372;9.918;2022-11-04T14:57:15;99987.00;;;17.00
11792;BMP180;5953;52.372;9.918;2022-11-04T14:59:44;99973.00;;;17.00
11792;BMP180;5953;52.372;9.918;2022-11-04T15:02:16;99986.00;;;17.00
11792;BMP180;5953;52.372;9.918;2022-11-04T15:04:51;99998.00;;;17.00
11792;BMP180;5953;52.372;9.918;2022-11-04T15:07:33;100012.00;;;17.00